METAR Data
IDs: Format: Raw Decoded Include TAF

Data at: 0740 UTC 03 Aug 2021

LFSN 030730Z AUTO 15004KT 9999 FEW007/// BKN028/// BKN034/// ///CB 16/15 Q1014